Time;durP1;ratioP1;P1;durP2;ratioP2;P2;SDS_P1;SDS_P2;PMS_P1;PMS_P2;Temp;Humidity;BMP_temperature;BMP_pressure;BME280_temperature;BME280_humidity;BME280_pressure;Samples;Min_cycle;Max_cycle;Signal;HPM_P1;HPM_P2
2023/08/04 00:01:25;;;;;;;0.53;0.20;;;20.90;99.90;;;;;;1880122;75;21114;-75
2023/08/04 00:09:35;;;;;;;1.32;0.40;;;21.00;99.90;;;;;;1942666;72;22232;-75
2023/08/04 00:15:08;;;;;;;0.72;0.30;;;21.10;99.90;;;;;;1926013;74;22196;-75
2023/08/04 00:17:59;;;;;;;1.85;0.20;;;21.10;99.90;;;;;;1904855;75;21106;-75
2023/08/04 00:20:50;;;;;;;0.88;0.20;;;21.10;99.90;;;;;;1886042;76;21138;-75
2023/08/04 00:23:42;;;;;;;0.30;0.20;;;21.00;99.90;;;;;;1888304;75;21066;-75
2023/08/04 00:26:33;;;;;;;0.80;0.20;;;21.10;99.90;;;;;;1903389;75;21583;-75
2023/08/04 00:29:24;;;;;;;0.72;0.30;;;21.00;99.90;;;;;;1909626;75;21190;-75
2023/08/04 00:32:16;;;;;;;1.20;0.20;;;21.00;99.90;;;;;;1895698;75;21153;-75
2023/08/04 00:35:08;;;;;;;0.68;0.23;;;21.00;99.90;;;;;;1884157;76;21058;-75
2023/08/04 00:37:59;;;;;;;0.30;0.20;;;20.90;99.90;;;;;;1913511;75;21631;-75
2023/08/04 00:40:53;;;;;;;1.15;0.28;;;20.90;99.90;;;;;;1910880;74;21062;-75
2023/08/04 00:43:44;;;;;;;0.30;0.17;;;20.90;99.90;;;;;;1910864;73;21071;-75
2023/08/04 00:49:18;;;;;;;1.12;0.25;;;20.90;99.90;;;;;;1933281;72;22233;-75
2023/08/04 00:52:10;;;;;;;1.75;0.37;;;20.80;99.90;;;;;;1884558;75;21446;-75
2023/08/04 00:55:01;;;;;;;1.62;0.30;;;20.70;99.90;;;;;;1888515;75;21171;-75
2023/08/04 00:57:54;;;;;;;0.47;0.20;;;20.70;99.90;;;;;;1899420;75;21343;-75
2023/08/04 01:00:46;;;;;;;0.65;0.20;;;20.80;99.90;;;;;;1891107;75;21176;-75
2023/08/04 01:03:38;;;;;;;1.25;0.30;;;20.70;99.90;;;;;;1894745;75;21153;-75
2023/08/04 01:09:15;;;;;;;1.45;0.30;;;20.60;99.90;;;;;;1934060;72;22232;-75
2023/08/04 01:14:48;;;;;;;1.10;0.20;;;20.60;99.90;;;;;;1967227;72;22283;-75
2023/08/04 01:20:18;;;;;;;0.55;0.23;;;20.40;99.90;;;;;;1945108;72;22097;-75
2023/08/04 01:23:09;;;;;;;0.88;0.20;;;20.30;99.90;;;;;;1928795;73;21186;-75
2023/08/04 01:26:02;;;;;;;0.85;0.30;;;20.50;99.90;;;;;;1917265;74;21113;-75
2023/08/04 01:28:54;;;;;;;0.62;0.30;;;20.50;99.90;;;;;;1923708;73;21109;-75
2023/08/04 01:31:45;;;;;;;0.55;0.35;;;20.40;99.90;;;;;;1917173;75;21200;-75
2023/08/04 01:34:37;;;;;;;1.02;0.25;;;20.40;99.90;;;;;;1917150;75;21178;-75
2023/08/04 01:37:28;;;;;;;1.42;0.25;;;20.50;99.90;;;;;;1934137;73;21059;-75
2023/08/04 01:40:20;;;;;;;0.40;0.20;;;20.50;99.90;;;;;;1936433;73;21208;-75
2023/08/04 01:45:49;;;;;;;0.98;0.30;;;20.30;99.90;;;;;;1928621;72;22236;-75
2023/08/04 01:48:41;;;;;;;1.72;0.57;;;20.40;99.90;;;;;;1906150;75;21114;-75
2023/08/04 01:51:32;;;;;;;1.17;0.23;;;20.30;99.90;;;;;;1895957;75;21118;-74
2023/08/04 01:54:23;;;;;;;2.33;0.53;;;20.30;99.90;;;;;;1914959;75;21075;-74
2023/08/04 01:59:52;;;;;;;1.02;0.40;;;20.30;99.90;;;;;;1936311;72;22333;-75
2023/08/04 02:05:22;;;;;;;1.20;0.30;;;20.20;99.90;;;;;;1932947;72;22177;-75
2023/08/04 02:08:13;;;;;;;1.35;0.30;;;20.20;99.90;;;;;;1903389;75;21087;-75
2023/08/04 02:13:44;;;;;;;0.95;0.28;;;20.20;99.90;;;;;;1925438;72;22242;-75
2023/08/04 02:16:35;;;;;;;1.87;0.40;;;20.10;99.90;;;;;;1916448;75;21232;-75
2023/08/04 02:19:26;;;;;;;0.70;0.25;;;20.20;99.90;;;;;;1905172;74;21499;-75
2023/08/04 02:22:17;;;;;;;0.75;0.30;;;20.20;99.90;;;;;;1906169;75;21144;-75
2023/08/04 02:25:09;;;;;;;1.60;0.40;;;20.20;99.90;;;;;;1895538;75;21059;-75
2023/08/04 02:28:01;;;;;;;1.72;0.37;;;20.10;99.90;;;;;;1900077;75;21098;-75
2023/08/04 02:30:52;;;;;;;1.05;0.50;;;20.00;99.90;;;;;;1916437;75;21101;-75
2023/08/04 02:33:43;;;;;;;1.98;0.50;;;20.00;99.90;;;;;;1916644;75;21070;-75
2023/08/04 02:36:35;;;;;;;1.25;0.40;;;20.00;99.90;;;;;;1916489;75;21348;-76
2023/08/04 02:39:26;;;;;;;1.27;0.50;;;20.10;99.90;;;;;;1909250;75;21115;-76
2023/08/04 02:42:18;;;;;;;1.00;0.40;;;20.10;99.90;;;;;;1908543;75;21058;-75
2023/08/04 02:45:12;;;;;;;1.57;0.50;;;20.10;99.90;;;;;;1905176;75;21598;-75
2023/08/04 02:48:05;;;;;;;0.60;0.30;;;20.10;99.90;;;;;;1900089;75;21123;-75
2023/08/04 02:51:02;;;;;;;0.40;0.30;;;20.10;99.90;;;;;;1917150;75;21473;-75
2023/08/04 02:53:54;;;;;;;1.75;0.47;;;20.00;99.90;;;;;;1917248;75;21046;-75
2023/08/04 02:56:45;;;;;;;0.88;0.30;;;20.00;99.90;;;;;;1896708;75;21113;-76
2023/08/04 03:02:15;;;;;;;1.00;0.40;;;20.00;99.90;;;;;;1927540;72;22251;-75
2023/08/04 03:05:08;;;;;;;1.67;0.33;;;20.00;99.90;;;;;;1911293;74;21176;-75
2023/08/04 03:07:59;;;;;;;1.07;0.40;;;20.00;99.90;;;;;;1917689;73;21140;-75
2023/08/04 03:10:50;;;;;;;1.35;0.40;;;19.90;99.90;;;;;;1886214;74;21181;-75
2023/08/04 03:13:41;;;;;;;0.95;0.50;;;19.70;99.90;;;;;;1913136;74;21144;-75
2023/08/04 03:16:33;;;;;;;1.17;0.60;;;19.60;99.90;;;;;;1922716;73;21195;-73
2023/08/04 03:19:24;;;;;;;0.62;0.30;;;19.30;99.90;;;;;;1922952;73;21074;-75
2023/08/04 03:22:15;;;;;;;0.75;0.40;;;19.10;99.90;;;;;;1902554;75;21134;-75
2023/08/04 03:25:09;;;;;;;1.32;0.60;;;18.80;99.90;;;;;;1917670;74;21356;-75
2023/08/04 03:28:01;;;;;;;2.02;0.75;;;18.70;99.90;;;;;;1916318;74;21143;-76
2023/08/04 03:30:52;;;;;;;0.80;0.40;;;18.60;99.90;;;;;;1908749;73;21047;-76
2023/08/04 03:36:23;;;;;;;0.70;0.30;;;18.40;99.90;;;;;;1932118;72;22249;-75
2023/08/04 03:39:14;;;;;;;1.10;0.50;;;18.40;99.90;;;;;;1906081;75;21114;-75
2023/08/04 03:44:44;;;;;;;1.37;0.60;;;18.20;99.90;;;;;;1961040;72;22337;-75
2023/08/04 03:47:35;;;;;;;1.02;0.40;;;18.20;99.90;;;;;;1930132;73;21158;-74
2023/08/04 03:50:26;;;;;;;0.62;0.42;;;18.20;99.90;;;;;;1930811;73;21152;-75
2023/08/04 03:53:18;;;;;;;1.35;0.50;;;18.20;99.90;;;;;;1917201;73;21069;-75
2023/08/04 03:58:54;;;;;;;0.95;0.40;;;18.20;99.90;;;;;;1953416;72;22134;-75
2023/08/04 04:01:45;;;;;;;2.05;0.57;;;18.30;99.90;;;;;;1934899;73;21094;-75
2023/08/04 04:04:37;;;;;;;1.27;0.40;;;18.20;99.90;;;;;;1916341;75;21095;-76
2023/08/04 04:07:29;;;;;;;2.25;0.50;;;18.10;99.90;;;;;;1917571;73;21063;-76
2023/08/04 04:10:20;;;;;;;0.85;0.50;;;18.10;99.90;;;;;;1917552;73;21097;-76
2023/08/04 04:13:11;;;;;;;2.72;0.60;;;18.10;99.90;;;;;;1926725;73;21101;-76
2023/08/04 04:16:02;;;;;;;1.40;0.60;;;18.20;99.90;;;;;;1932931;73;21171;-76
2023/08/04 04:18:54;;;;;;;0.80;0.40;;;18.20;99.90;;;;;;1916964;75;21483;-76
2023/08/04 04:21:46;;;;;;;1.45;0.35;;;18.10;99.90;;;;;;1917087;75;21160;-76
2023/08/04 04:24:38;;;;;;;2.22;0.50;;;18.10;99.90;;;;;;1935098;73;21054;-75
2023/08/04 04:30:10;;;;;;;1.75;0.40;;;18.20;99.90;;;;;;1934091;72;22158;-75
2023/08/04 04:35:39;;;;;;;0.98;0.40;;;18.30;99.90;;;;;;1934675;72;22178;-75
2023/08/04 04:41:09;;;;;;;0.90;0.40;;;18.40;99.90;;;;;;1942162;72;22287;-75
2023/08/04 04:44:00;;;;;;;1.10;0.40;;;18.40;99.90;;;;;;1884296;75;21231;-77
2023/08/04 04:49:31;;;;;;;1.35;0.50;;;18.30;99.90;;;;;;1948802;72;22188;-75
2023/08/04 04:55:01;;;;;;;0.57;0.37;;;18.40;99.90;;;;;;1943568;72;22217;-75
2023/08/04 04:57:52;;;;;;;1.42;0.42;;;18.40;99.90;;;;;;1893340;75;21106;-75
2023/08/04 05:03:24;;;;;;;1.02;0.50;;;18.60;99.90;;;;;;1937912;72;22196;-75
2023/08/04 05:06:15;;;;;;;0.88;0.30;;;18.70;99.90;;;;;;1910265;74;21117;-75
2023/08/04 05:11:48;;;;;;;0.93;0.40;;;19.00;99.90;;;;;;1943432;72;22149;-76
2023/08/04 05:14:41;;;;;;;0.62;0.33;;;19.10;99.90;;;;;;1908161;75;21159;-76
2023/08/04 05:20:13;;;;;;;1.42;0.50;;;19.10;99.90;;;;;;1938227;72;22272;-75
2023/08/04 05:23:05;;;;;;;1.05;0.40;;;19.20;99.90;;;;;;1914561;75;21098;-75
2023/08/04 05:25:56;;;;;;;0.65;0.30;;;19.20;99.90;;;;;;1899554;75;21110;-76
2023/08/04 05:31:32;;;;;;;0.33;0.10;;;19.20;99.90;;;;;;1945045;72;22170;-75
2023/08/04 05:34:23;;;;;;;0.65;0.30;;;19.10;99.90;;;;;;1909960;75;21138;-77
2023/08/04 05:39:52;;;;;;;3.10;0.40;;;19.10;99.90;;;;;;1931768;72;22240;-75
2023/08/04 05:42:44;;;;;;;0.98;0.35;;;19.10;99.90;;;;;;1918667;74;21047;-74
2023/08/04 05:45:37;;;;;;;0.80;0.30;;;19.10;99.90;;;;;;1913689;74;21537;-75
2023/08/04 05:48:28;;;;;;;1.25;0.30;;;19.10;99.90;;;;;;1921533;74;21184;-75
2023/08/04 05:51:19;;;;;;;1.50;0.20;;;19.00;99.90;;;;;;1917872;74;21142;-75
2023/08/04 05:54:11;;;;;;;2.67;0.40;;;19.00;99.90;;;;;;1906697;73;21179;-75
2023/08/04 05:57:02;;;;;;;0.50;0.30;;;19.20;99.90;;;;;;1915926;74;21108;-75
2023/08/04 05:59:53;;;;;;;0.60;0.30;;;19.10;99.90;;;;;;1897622;73;21120;-75
2023/08/04 06:05:27;;;;;;;0.85;0.20;;;19.20;99.90;;;;;;1930843;72;22191;-75
2023/08/04 06:08:18;;;;;;;2.20;0.30;;;19.40;99.90;;;;;;1890920;75;21133;-75
2023/08/04 06:11:10;;;;;;;0.55;0.28;;;19.40;99.90;;;;;;1895312;75;21129;-75
2023/08/04 06:14:02;;;;;;;0.33;0.20;;;19.50;99.90;;;;;;1885811;75;21156;-75
2023/08/04 06:16:53;;;;;;;0.72;0.30;;;19.60;99.90;;;;;;1895880;75;21066;-76
2023/08/04 06:19:45;;;;;;;1.40;0.20;;;19.50;99.90;;;;;;1894587;75;21622;-75
2023/08/04 06:22:37;;;;;;;1.00;0.30;;;19.40;99.90;;;;;;1905534;75;21094;-74
2023/08/04 06:28:07;;;;;;;1.95;0.30;;;19.40;99.90;;;;;;1938825;72;22197;-74
2023/08/04 06:30:59;;;;;;;0.98;0.30;;;19.40;99.90;;;;;;1893195;75;21166;-74
2023/08/04 06:33:50;;;;;;;0.62;0.30;;;19.30;99.90;;;;;;1895537;75;21164;-74
2023/08/04 06:36:43;;;;;;;0.25;0.20;;;19.40;99.90;;;;;;1909223;75;21600;-74
2023/08/04 06:39:34;;;;;;;0.98;0.25;;;19.30;99.90;;;;;;1893847;75;21059;-74
2023/08/04 06:45:08;;;;;;;0.60;0.20;;;19.40;99.90;;;;;;1932106;72;22311;-75
2023/08/04 06:50:38;;;;;;;1.35;0.33;;;19.40;99.90;;;;;;1929852;72;22724;-75
2023/08/04 06:53:29;;;;;;;0.82;0.20;;;19.40;99.90;;;;;;1891319;75;21200;-74
2023/08/04 06:56:21;;;;;;;0.37;0.20;;;19.30;99.90;;;;;;1912414;75;21167;-74
2023/08/04 06:59:12;;;;;;;1.05;0.30;;;19.40;99.90;;;;;;1903708;75;21156;-74
2023/08/04 07:04:43;;;;;;;0.20;0.20;;;19.40;99.90;;;;;;1936156;72;22185;-74
2023/08/04 07:10:17;;;;;;;1.85;0.30;;;19.50;99.90;;;;;;1929909;72;22211;-74
2023/08/04 07:13:08;;;;;;;0.30;0.20;;;19.30;99.90;;;;;;1905906;74;21168;-74
2023/08/04 07:16:00;;;;;;;1.42;0.20;;;19.40;99.90;;;;;;1906872;75;21083;-74
2023/08/04 07:18:52;;;;;;;0.25;0.10;;;19.50;99.90;;;;;;1907917;75;21646;-76
2023/08/04 07:21:44;;;;;;;1.12;0.20;;;19.40;99.90;;;;;;1889535;75;21123;-74
2023/08/04 07:24:36;;;;;;;1.17;0.28;;;19.20;99.90;;;;;;1905517;75;21137;-74
2023/08/04 07:30:09;;;;;;;0.20;0.10;;;19.10;99.90;;;;;;1927725;72;22157;-74
2023/08/04 07:33:04;;;;;;;2.15;0.30;;;18.90;99.90;;;;;;1943471;73;21175;-75
2023/08/04 07:35:55;;;;;;;0.95;0.20;;;18.80;99.90;;;;;;1926977;73;21050;-75
2023/08/04 07:41:27;;;;;;;2.30;0.20;;;18.80;99.90;;;;;;1926502;72;22276;-74
2023/08/04 07:46:59;;;;;;;0.72;0.20;;;18.50;99.90;;;;;;1947959;72;22228;-75
2023/08/04 07:52:29;;;;;;;0.50;0.10;;;18.30;99.90;;;;;;1930330;72;22166;-74
2023/08/04 07:55:21;;;;;;;0.90;0.20;;;18.20;99.90;;;;;;1906478;75;21138;-74
2023/08/04 08:00:51;;;;;;;1.37;0.25;;;18.10;99.90;;;;;;1944941;72;22696;-74
2023/08/04 08:03:44;;;;;;;1.22;0.20;;;18.10;99.90;;;;;;1923992;73;21171;-74
2023/08/04 08:06:36;;;;;;;0.25;0.20;;;18.20;99.90;;;;;;1927956;73;21338;-74
2023/08/04 08:09:27;;;;;;;1.77;0.28;;;18.30;99.90;;;;;;1926998;73;21188;-74
2023/08/04 08:14:58;;;;;;;1.50;0.30;;;18.40;99.90;;;;;;1933427;72;22235;-75
2023/08/04 08:17:49;;;;;;;0.65;0.20;;;18.30;99.90;;;;;;1892237;75;21098;-75
2023/08/04 08:20:42;;;;;;;0.98;0.20;;;18.40;99.90;;;;;;1893556;75;21629;-75
2023/08/04 08:23:33;;;;;;;0.78;0.10;;;18.30;99.90;;;;;;1899791;75;21648;-76
2023/08/04 08:26:25;;;;;;;0.57;0.20;;;18.20;99.90;;;;;;1901153;75;21137;-74
2023/08/04 08:29:16;;;;;;;0.13;0.10;;;18.00;99.90;;;;;;1903440;75;21123;-76
2023/08/04 08:32:10;;;;;;;0.42;0.10;;;17.80;99.90;;;;;;1890715;75;21119;-75
2023/08/04 08:35:01;;;;;;;0.70;0.15;;;17.80;99.90;;;;;;1888895;75;21402;-76
2023/08/04 08:40:32;;;;;;;0.00;0.00;;;17.70;99.90;;;;;;1934378;72;22201;-75
2023/08/04 08:46:03;;;;;;;0.90;0.10;;;17.50;99.90;;;;;;1931262;72;22224;-74
2023/08/04 08:48:57;;;;;;;0.10;0.10;;;17.40;99.90;;;;;;1896377;75;21118;-75
2023/08/04 08:51:51;;;;;;;0.33;0.10;;;17.40;99.90;;;;;;1878546;75;21171;-75
2023/08/04 08:57:23;;;;;;;0.25;0.10;;;17.10;99.90;;;;;;1933127;72;22291;-77
2023/08/04 09:00:17;;;;;;;0.33;0.10;;;17.20;99.90;;;;;;1893464;75;21200;-75
2023/08/04 09:03:09;;;;;;;0.13;0.10;;;17.30;99.90;;;;;;1895311;74;21635;-75
2023/08/04 09:06:01;;;;;;;0.10;0.10;;;17.50;99.90;;;;;;1902528;75;21082;-75
2023/08/04 09:08:54;;;;;;;0.10;0.10;;;17.50;99.90;;;;;;1911503;75;21115;-75
2023/08/04 09:11:45;;;;;;;1.45;0.10;;;17.40;99.90;;;;;;1905707;75;21084;-75
2023/08/04 09:14:50;;;;;;;0.25;0.05;;;17.30;99.90;;;;;;1908689;75;21202;-74
2023/08/04 09:17:44;;;;;;;0.15;0.13;;;17.10;99.90;;;;;;1909957;75;21171;-75
2023/08/04 09:23:16;;;;;;;0.25;0.10;;;17.10;99.90;;;;;;1939178;72;22213;-77
2023/08/04 09:26:07;;;;;;;0.10;0.10;;;17.20;99.90;;;;;;1891434;75;21108;-76
2023/08/04 09:31:48;;;;;;;0.95;0.20;;;17.30;99.90;;;;;;1945298;72;22794;-77
2023/08/04 09:37:20;;;;;;;0.33;0.20;;;17.40;99.90;;;;;;1941705;72;22268;-77
2023/08/04 09:40:18;;;;;;;0.37;0.23;;;17.40;99.90;;;;;;1912827;75;21176;-75
2023/08/04 09:43:10;;;;;;;0.68;0.40;;;17.40;99.90;;;;;;1900645;75;21135;-77
2023/08/04 09:46:05;;;;;;;0.90;0.42;;;17.50;99.90;;;;;;1898778;75;21196;-75
2023/08/04 09:49:00;;;;;;;1.95;0.53;;;17.60;99.90;;;;;;1895044;75;21257;-76
2023/08/04 09:51:53;;;;;;;0.60;0.30;;;17.60;99.90;;;;;;1878395;75;21166;-75
2023/08/04 09:54:45;;;;;;;0.42;0.20;;;17.60;99.90;;;;;;1881102;75;21099;-75
2023/08/04 10:00:17;;;;;;;0.50;0.10;;;17.70;99.90;;;;;;1939127;72;22151;-76
2023/08/04 10:03:10;;;;;;;0.10;0.10;;;17.60;99.90;;;;;;1900045;75;21159;-76
2023/08/04 10:06:03;;;;;;;0.00;0.00;;;17.60;99.90;;;;;;1903567;75;21083;-76
2023/08/04 10:08:56;;;;;;;0.10;0.10;;;17.70;99.90;;;;;;1843520;77;21065;-75
2023/08/04 10:11:48;;;;;;;0.10;0.10;;;17.60;99.90;;;;;;1890658;75;22318;-74
2023/08/04 10:14:40;;;;;;;0.03;0.03;;;17.70;99.90;;;;;;1911146;75;21548;-76
2023/08/04 10:17:32;;;;;;;0.05;0.05;;;17.60;99.90;;;;;;1885561;75;21184;-76
2023/08/04 10:23:05;;;;;;;0.00;0.00;;;17.80;99.90;;;;;;1932320;72;22241;-80
2023/08/04 10:26:02;;;;;;;0.80;0.00;;;17.80;99.90;;;;;;1892152;75;21188;-76
2023/08/04 10:29:05;;;;;;;0.00;0.00;;;17.80;99.90;;;;;;1879226;75;21729;-75
2023/08/04 10:34:40;;;;;;;0.00;0.00;;;17.90;99.90;;;;;;1926570;72;22265;-75
2023/08/04 10:40:15;;;;;;;0.08;0.00;;;17.60;99.90;;;;;;1944794;72;22198;-77
2023/08/04 10:43:08;;;;;;;0.20;0.00;;;17.40;99.90;;;;;;1908383;73;21617;-76
2023/08/04 10:46:03;;;;;;;0.03;0.03;;;17.30;99.90;;;;;;1928533;73;21038;-75
2023/08/04 10:48:55;;;;;;;0.28;0.10;;;17.20;99.90;;;;;;1931237;73;21097;-75
2023/08/04 10:54:26;;;;;;;0.10;0.10;;;17.20;99.90;;;;;;1939498;72;22240;-77
2023/08/04 10:59:59;;;;;;;0.30;0.10;;;17.10;99.90;;;;;;1948169;72;22601;-77
2023/08/04 11:05:29;;;;;;;0.50;0.10;;;17.00;99.90;;;;;;1943771;72;22268;-75
2023/08/04 11:08:22;;;;;;;0.00;0.00;;;16.80;99.90;;;;;;1890608;75;21120;-78
2023/08/04 11:11:14;;;;;;;0.28;0.10;;;16.70;99.90;;;;;;1905980;75;21190;-77
2023/08/04 11:14:08;;;;;;;0.00;0.00;;;16.60;99.90;;;;;;1896783;75;21237;-75
2023/08/04 11:19:39;;;;;;;0.10;0.10;;;16.30;99.90;;;;;;1933171;72;22169;-80
2023/08/04 11:22:30;;;;;;;0.10;0.10;;;16.30;99.90;;;;;;1901995;75;21217;-80
2023/08/04 11:25:24;;;;;;;0.30;0.10;;;16.20;99.90;;;;;;1906265;75;21164;-77
2023/08/04 11:28:16;;;;;;;0.10;0.10;;;16.10;99.90;;;;;;1886996;75;21549;-79
2023/08/04 11:31:09;;;;;;;0.45;0.20;;;16.00;99.90;;;;;;1882724;75;21774;-78
2023/08/04 11:34:01;;;;;;;1.25;0.40;;;16.00;99.90;;;;;;1890707;75;21172;-80
2023/08/04 11:36:53;;;;;;;0.90;0.42;;;16.10;99.90;;;;;;1884295;75;21141;-79
2023/08/04 11:39:44;;;;;;;0.30;0.17;;;16.00;99.90;;;;;;1895438;75;21125;-79
2023/08/04 11:45:20;;;;;;;2.37;0.50;;;16.00;99.90;;;;;;1943193;72;22238;-78
2023/08/04 11:50:49;;;;;;;0.95;0.20;;;16.10;99.90;;;;;;1940251;72;22154;-79
2023/08/04 11:53:42;;;;;;;0.20;0.10;;;16.00;99.90;;;;;;1904034;75;21149;-79
2023/08/04 11:56:40;;;;;;;0.55;0.20;;;16.10;99.90;;;;;;1885471;75;21122;-78
2023/08/04 11:59:32;;;;;;;0.62;0.20;;;16.20;99.90;;;;;;1885575;75;21125;-77
2023/08/04 12:02:23;;;;;;;0.20;0.20;;;16.30;99.90;;;;;;1848774;76;21121;-77
2023/08/04 12:05:15;;;;;;;0.93;0.30;;;16.30;99.90;;;;;;1885746;75;21173;-77
2023/08/04 12:08:14;;;;;;;0.20;0.20;;;16.30;99.90;;;;;;1889323;75;21126;-78
2023/08/04 12:11:04;;;;;;;;;;;16.40;99.90;;;;;;1904903;75;21123;-78
2023/08/04 12:14:07;;;;;;;0.40;0.10;;;16.50;99.90;;;;;;1891256;75;20127;-77
2023/08/04 12:19:39;;;;;;;0.20;0.20;;;16.60;99.90;;;;;;1931311;72;22334;-78
2023/08/04 12:25:12;;;;;;;1.72;0.20;;;16.50;99.90;;;;;;1954849;72;22175;-78
2023/08/04 12:30:44;;;;;;;0.20;0.10;;;16.50;99.90;;;;;;1937406;72;22701;-77
2023/08/04 12:36:20;;;;;;;0.65;0.30;;;16.50;99.90;;;;;;1943914;72;22170;-79
2023/08/04 12:39:13;;;;;;;0.55;0.10;;;16.40;99.90;;;;;;1889973;75;21228;-77
2023/08/04 12:42:04;;;;;;;0.30;0.20;;;16.20;99.90;;;;;;1879258;75;21086;-77
2023/08/04 12:44:56;;;;;;;0.20;0.20;;;16.10;99.90;;;;;;1892755;75;21148;-79
2023/08/04 12:50:25;;;;;;;0.53;0.28;;;16.10;99.90;;;;;;1929629;72;22157;-81
2023/08/04 12:53:16;;;;;;;0.60;0.20;;;16.20;99.90;;;;;;1881312;75;21155;-78
2023/08/04 12:56:08;;;;;;;0.10;0.10;;;16.10;99.90;;;;;;1883493;74;21546;-79
2023/08/04 12:58:59;;;;;;;0.60;0.37;;;16.10;99.90;;;;;;1893123;75;21605;-79
2023/08/04 13:01:50;;;;;;;0.30;0.30;;;16.20;99.90;;;;;;1877688;75;21082;-79
2023/08/04 13:04:42;;;;;;;1.35;0.45;;;16.20;99.90;;;;;;1894689;74;21082;-79
2023/08/04 13:07:34;;;;;;;0.40;0.40;;;16.20;99.90;;;;;;1886760;75;21123;-80
2023/08/04 13:10:25;;;;;;;1.75;0.30;;;16.30;99.90;;;;;;1891240;75;21169;-80
2023/08/04 13:13:17;;;;;;;0.28;0.25;;;16.10;99.90;;;;;;1880425;75;21114;-79
2023/08/04 13:16:10;;;;;;;1.10;0.40;;;16.10;99.90;;;;;;1884449;75;21120;-79
2023/08/04 13:19:02;;;;;;;1.47;0.50;;;16.20;99.90;;;;;;1889361;75;21156;-79
2023/08/04 13:24:37;;;;;;;0.20;0.20;;;16.20;99.90;;;;;;1945432;72;22564;-80
2023/08/04 13:30:10;;;;;;;1.42;0.60;;;16.40;99.90;;;;;;1953986;72;22142;-81
2023/08/04 13:33:03;;;;;;;1.42;0.60;;;16.30;99.90;;;;;;1911410;75;21212;-80
2023/08/04 13:35:55;;;;;;;2.77;0.60;;;16.30;99.90;;;;;;1893686;75;21532;-79
2023/08/04 13:38:46;;;;;;;1.85;0.65;;;16.40;99.90;;;;;;1916245;75;21160;-78
2023/08/04 13:41:37;;;;;;;0.72;0.37;;;16.50;99.90;;;;;;1914538;75;21108;-80
2023/08/04 13:47:09;;;;;;;1.80;0.95;;;16.80;99.90;;;;;;1950084;72;22263;-79
2023/08/04 13:50:00;;;;;;;0.62;0.50;;;16.90;99.90;;;;;;1931272;73;21596;-80
2023/08/04 13:55:29;;;;;;;2.35;0.70;;;17.10;99.90;;;;;;1919885;72;22246;-80
2023/08/04 13:58:21;;;;;;;0.95;0.50;;;17.30;99.90;;;;;;1909336;75;21155;-81
2023/08/04 14:01:13;;;;;;;1.80;0.70;;;17.60;99.90;;;;;;1898950;75;21192;-80
2023/08/04 14:04:05;;;;;;;1.75;0.60;;;17.70;99.90;;;;;;1909574;75;21178;-81
2023/08/04 14:06:57;;;;;;;1.95;0.50;;;18.10;99.90;;;;;;1898328;75;21448;-79
2023/08/04 14:09:50;;;;;;;1.30;0.40;;;18.50;99.90;;;;;;1891167;75;21143;-79
2023/08/04 14:12:41;;;;;;;1.65;0.50;;;18.60;99.90;;;;;;1892656;75;21632;-78
2023/08/04 14:15:33;;;;;;;0.93;0.50;;;18.90;99.90;;;;;;1903577;75;21604;-77
2023/08/04 14:21:04;;;;;;;0.95;0.40;;;19.50;99.90;;;;;;1942017;72;22272;-77
2023/08/04 14:23:55;;;;;;;0.68;0.30;;;19.90;99.90;;;;;;1907937;74;21050;-77
2023/08/04 14:26:46;;;;;;;0.78;0.50;;;20.10;99.90;;;;;;1897423;75;21098;-78
2023/08/04 14:29:38;;;;;;;0.80;0.60;;;20.00;99.90;;;;;;1908558;75;21109;-78
2023/08/04 14:35:12;;;;;;;0.72;0.50;;;20.00;99.90;;;;;;1940095;72;22153;-77
2023/08/04 14:38:03;;;;;;;4.17;0.72;;;20.20;99.90;;;;;;1901831;75;21183;-77
2023/08/04 14:40:54;;;;;;;1.60;0.50;;;20.20;99.90;;;;;;1891844;75;21110;-78
2023/08/04 14:43:46;;;;;;;1.10;0.70;;;20.00;99.90;;;;;;1909336;75;21090;-78
2023/08/04 14:46:37;;;;;;;2.60;0.75;;;20.10;99.90;;;;;;1886685;75;21573;-77
2023/08/04 14:49:29;;;;;;;1.15;0.60;;;20.30;99.90;;;;;;1905156;75;21106;-77
2023/08/04 14:52:20;;;;;;;0.53;0.50;;;20.50;99.90;;;;;;1897969;75;21098;-77
2023/08/04 14:55:12;;;;;;;0.93;0.70;;;20.70;99.90;;;;;;1908963;75;21163;-77
2023/08/04 15:00:42;;;;;;;1.12;0.50;;;20.40;99.90;;;;;;1938786;72;22196;-77
2023/08/04 15:03:36;;;;;;;0.88;0.70;;;20.00;99.90;;;;;;1902628;75;21113;-77
2023/08/04 15:09:09;;;;;;;1.17;0.65;;;19.60;99.90;;;;;;1975301;72;22267;-79
2023/08/04 15:12:00;;;;;;;1.52;0.68;;;19.40;99.90;;;;;;1925729;73;21058;-79
2023/08/04 15:14:51;;;;;;;0.90;0.55;;;19.40;99.90;;;;;;1917204;73;21102;-77
2023/08/04 15:17:43;;;;;;;1.42;0.70;;;19.30;99.90;;;;;;1921977;73;21144;-77
2023/08/04 15:23:15;;;;;;;4.75;0.90;;;19.10;99.90;;;;;;1946688;72;22171;-79
2023/08/04 15:26:07;;;;;;;1.90;0.70;;;19.10;99.90;;;;;;1897410;75;21553;-78
2023/08/04 15:28:58;;;;;;;2.77;0.80;;;19.00;99.90;;;;;;1884797;75;21528;-77
2023/08/04 15:34:31;;;;;;;1.00;0.60;;;18.80;99.90;;;;;;1946491;72;22117;-79
2023/08/04 15:40:02;;;;;;;0.90;0.65;;;18.70;99.90;;;;;;1934433;72;22255;-78
2023/08/04 15:45:32;;;;;;;1.82;0.85;;;18.70;99.90;;;;;;1932698;72;22216;-80
2023/08/04 15:51:03;;;;;;;1.22;0.60;;;18.90;99.90;;;;;;1935334;72;22309;-78
2023/08/04 15:53:54;;;;;;;1.87;0.55;;;19.00;99.90;;;;;;1896739;75;21118;-78
2023/08/04 15:56:45;;;;;;;3.50;0.70;;;19.00;99.90;;;;;;1870035;74;21125;-78
2023/08/04 15:59:38;;;;;;;1.45;0.80;;;19.10;99.90;;;;;;1889728;75;21095;-77
2023/08/04 16:05:09;;;;;;;1.10;0.70;;;19.30;99.90;;;;;;1925291;72;22249;-80
2023/08/04 16:08:00;;;;;;;1.55;0.60;;;19.30;99.90;;;;;;1902665;75;21524;-78
2023/08/04 16:10:59;;;;;;;2.02;0.50;;;19.20;99.90;;;;;;1898963;74;21079;-84
2023/08/04 16:13:50;;;;;;;0.40;0.30;;;19.10;99.90;;;;;;1907678;74;21156;-84
2023/08/04 16:16:41;;;;;;;1.70;0.75;;;19.20;99.90;;;;;;1915314;73;21105;-84
2023/08/04 16:19:33;;;;;;;0.45;0.35;;;19.10;99.90;;;;;;1915486;74;21096;-85
2023/08/04 16:25:04;;;;;;;1.17;0.50;;;19.20;99.90;;;;;;1933734;72;23251;-84
2023/08/04 16:27:56;;;;;;;0.53;0.40;;;19.10;99.90;;;;;;1909804;74;21128;-85
2023/08/04 16:30:47;;;;;;;0.98;0.50;;;19.00;99.90;;;;;;1902157;75;21139;-85
2023/08/04 16:33:39;;;;;;;0.65;0.50;;;19.10;99.90;;;;;;1906188;75;21651;-85
2023/08/04 16:36:30;;;;;;;0.50;0.50;;;19.30;99.90;;;;;;1904342;75;21046;-84
2023/08/04 16:39:23;;;;;;;0.53;0.37;;;19.70;99.90;;;;;;1914737;75;21399;-85
2023/08/04 16:44:54;;;;;;;0.53;0.42;;;20.90;99.90;;;;;;1932556;72;22384;-86
2023/08/04 16:50:25;;;;;;;1.35;0.47;;;22.50;99.90;;;;;;1944643;72;22247;-83
2023/08/04 16:56:02;;;;;;;0.82;0.45;;;21.70;99.90;;;;;;1945072;72;22193;-83
2023/08/04 16:58:53;;;;;;;1.95;0.40;;;21.80;99.90;;;;;;1898403;75;21101;-83
2023/08/04 17:01:45;;;;;;;0.60;0.60;;;21.50;99.90;;;;;;1905932;75;21597;-83
2023/08/04 17:04:36;;;;;;;1.25;0.40;;;21.10;99.90;;;;;;1894354;75;21204;-83
2023/08/04 17:10:11;;;;;;;0.37;0.20;;;21.30;99.90;;;;;;1954127;72;22145;-83
2023/08/04 17:13:02;;;;;;;0.50;0.20;;;21.20;99.90;;;;;;1929727;73;21243;-84
2023/08/04 17:15:54;;;;;;;0.37;0.30;;;21.10;99.90;;;;;;1922825;73;21126;-83
2023/08/04 17:21:25;;;;;;;1.15;0.50;;;20.50;99.90;;;;;;1950852;72;22194;-82
2023/08/04 17:24:17;;;;;;;0.95;0.57;;;20.50;99.90;;;;;;1878623;74;21062;-82
2023/08/04 17:29:58;;;;;;;1.32;0.55;;;20.10;99.90;;;;;;1948808;72;22182;-84
2023/08/04 17:35:29;;;;;;;0.33;0.33;;;19.90;99.90;;;;;;1953389;72;22638;-84
2023/08/04 17:38:20;;;;;;;2.10;0.60;;;20.00;99.90;;;;;;1919094;73;21168;-83
2023/08/04 17:41:12;;;;;;;0.60;0.50;;;19.90;99.90;;;;;;1928099;73;21082;-83
2023/08/04 17:44:03;;;;;;;1.05;0.40;;;19.70;99.90;;;;;;1925861;73;21557;-82
2023/08/04 17:46:54;;;;;;;0.90;0.40;;;19.60;99.90;;;;;;1927503;73;21087;-83
2023/08/04 17:49:46;;;;;;;0.93;0.50;;;19.60;99.90;;;;;;1922385;73;21075;-83
2023/08/04 17:55:30;;;;;;;2.10;0.55;;;19.50;99.90;;;;;;1945966;72;22202;-84
2023/08/04 18:01:01;;;;;;;0.68;0.50;;;19.50;99.90;;;;;;1943854;72;22228;-84
2023/08/04 18:03:53;;;;;;;0.93;0.40;;;19.40;99.90;;;;;;1891755;75;21150;-83
2023/08/04 18:06:45;;;;;;;0.85;0.55;;;19.30;99.90;;;;;;1891421;75;21163;-82
2023/08/04 18:09:36;;;;;;;1.02;0.47;;;19.40;99.90;;;;;;1902008;75;21099;-84
2023/08/04 18:12:27;;;;;;;0.88;0.40;;;19.40;99.90;;;;;;1906136;75;21176;-84
2023/08/04 18:15:18;;;;;;;1.00;0.60;;;19.40;99.90;;;;;;1915534;75;21309;-83
2023/08/04 18:18:10;;;;;;;0.68;0.57;;;19.40;99.90;;;;;;1912079;75;21093;-83
2023/08/04 18:21:02;;;;;;;0.85;0.60;;;19.40;99.90;;;;;;1909571;75;21062;-83
2023/08/04 18:23:53;;;;;;;0.93;0.70;;;19.40;99.90;;;;;;1901050;75;21105;-83
2023/08/04 18:29:25;;;;;;;3.60;0.40;;;19.40;99.90;;;;;;1945006;72;22252;-82
2023/08/04 18:34:55;;;;;;;0.47;0.47;;;19.30;99.90;;;;;;1927639;72;22209;-84
2023/08/04 18:37:46;;;;;;;0.90;0.60;;;19.30;99.90;;;;;;1890860;75;21066;-82
2023/08/04 18:40:37;;;;;;;0.80;0.53;;;19.30;99.90;;;;;;1893168;75;21174;-82